Погода Роттнест-Айлендна неделю

Западная Австралия, Австралия

05 - 11 марта
  • 05марта
    Сегодня
    +17°
    +31°
    Ясно и безоблачно
    ВремяПогодаТемператураВлажностьДавлениеВетер, м/сВероятность осадков
    02:00Ясно и безоблачно+21°C72 %760 мм2.0 м/с5 %
    05:00Ясно и безоблачно+18°C80 %760 мм1.8 м/с5 %
    08:00Ясно и безоблачно+20°C67 %761 мм2.7 м/с5 %
    11:00Ясно и безоблачно+26°C48 %760 мм2.6 м/с5 %
    14:00Ясно и безоблачно+31°C36 %758 мм3.4 м/с5 %
    17:00Ясно и безоблачно+31°C36 %757 мм3.7 м/с5 %
    20:00Ясно и безоблачно+27°C45 %759 мм3.6 м/с5 %
    23:00Ясно и безоблачно+23°C57 %760 мм3.1 м/с5 %
  • 06марта
    Среда
    +22°
    +32°
    Ясно и безоблачно
    ВремяПогодаТемператураВлажностьДавлениеВетер, м/сВероятность осадков
    02:00Ясно и безоблачно+19°C68 %760 мм2.4 м/с5 %
    05:00Ясно и безоблачно+17°C75 %760 мм2.2 м/с5 %
    08:00Ясно и безоблачно+20°C64 %760 мм3.1 м/с5 %
    11:00Ясно и безоблачно+27°C47 %759 мм3.2 м/с5 %
    14:00Ясно и безоблачно+31°C40 %757 мм3.9 м/с5 %
    17:00Ясно и безоблачно+32°C37 %756 мм4.5 м/с5 %
    20:00Ясно и безоблачно+28°C49 %758 мм3.4 м/с5 %
    23:00Ясно и безоблачно+26°C58 %758 мм2.1 м/с5 %
  • 07марта
    Четверг
    +25°
    +35°
    Практически безоблачно
    ВремяПогодаТемператураВлажностьДавлениеВетер, м/сВероятность осадков
    02:00Ясно и безоблачно+25°C62 %757 мм2.1 м/с5 %
    05:00Ясно и безоблачно+23°C68 %757 мм2.0 м/с5 %
    08:00Ясно и безоблачно+25°C60 %758 мм3.2 м/с5 %
    11:00Ясно и безоблачно+30°C45 %757 мм3.1 м/с5 %
    14:00Практически безоблачно+34°C34 %754 мм3.5 м/с4 %
    17:00Практически безоблачно+34°C34 %753 мм3.1 м/с5 %
    20:00Ясно и безоблачно+29°C47 %754 мм3.5 м/с6 %
    23:00Ясно и безоблачно+27°C57 %754 мм2.1 м/с13 %
  • 08марта
    Пятница
    +14°
    +31°
    Ясно и безоблачно
    ВремяПогодаТемператураВлажностьДавлениеВетер, м/сВероятность осадков
    02:00Ясно и безоблачно+26°C62 %753 мм1.8 м/с18 %
    05:00Ясно и безоблачно+25°C65 %753 мм1.6 м/с18 %
    08:00Ясно и безоблачно+27°C56 %753 мм2.1 м/с36 %
    11:00Небольшая облачность и лёгкий дождик+30°C40 %752 мм3.1 м/с53 %
    14:00Ясно и безоблачно+28°C58 %752 мм5.0 м/с47 %
    17:00Ясно и безоблачно+24°C67 %752 мм5.0 м/с18 %
    20:00Практически безоблачно+21°C74 %754 мм5.1 м/с13 %
    23:00Практически безоблачно+20°C70 %755 мм3.8 м/с9 %
  • 09марта
    Суббота
    +15°
    +27°
    Ясно и безоблачно
    ВремяПогодаТемператураВлажностьДавлениеВетер, м/сВероятность осадков
    02:00Ясно и безоблачно+17°C67 %756 мм3.3 м/с4 %
    05:00Ясно и безоблачно+15°C68 %757 мм2.3 м/с4 %
    08:00Ясно и безоблачно+16°C57 %759 мм2.9 м/с4 %
    11:00Ясно и безоблачно+20°C35 %759 мм2.8 м/с4 %
    14:00Ясно и безоблачно+25°C26 %757 мм3.5 м/с5 %
    17:00Ясно и безоблачно+24°C31 %756 мм4.3 м/с5 %
    20:00Ясно и безоблачно+22°C37 %758 мм2.5 м/с5 %
    23:00Ясно и безоблачно+20°C41 %759 мм2.3 м/с5 %
Мы используем cookies
Соглашаюсь